Time;durP1;ratioP1;P1;durP2;ratioP2;P2;SDS_P1;SDS_P2;PMS_P1;PMS_P2;Temp;Humidity;BMP_temperature;BMP_pressure;BME280_temperature;BME280_humidity;BME280_pressure;Samples;Min_cycle;Max_cycle;Signal;HPM_P1;HPM_P2
2023/10/05 00:01:56;;;;;;;2.00;1.13;;;;;;;;;;5003729;28;20204;-55
2023/10/05 00:04:26;;;;;;;1.75;1.10;;;;;;;;;;5004125;28;20706;-55
2023/10/05 00:06:56;;;;;;;1.00;0.90;;;;;;;;;;4998873;28;20491;-55
2023/10/05 00:09:24;;;;;;;1.30;1.10;;;;;;;;;;5007904;28;20191;-55
2023/10/05 00:11:53;;;;;;;1.15;1.05;;;;;;;;;;4996663;28;20194;-55
2023/10/05 00:14:19;;;;;;;1.10;0.90;;;;;;;;;;5001446;28;20182;-55
2023/10/05 00:16:47;;;;;;;1.50;1.20;;;;;;;;;;4997472;28;20247;-55
2023/10/05 00:19:15;;;;;;;1.40;1.10;;;;;;;;;;4986562;28;20197;-55
2023/10/05 00:21:51;;;;;;;1.80;1.30;;;;;;;;;;5004081;28;20188;-55
2023/10/05 00:24:37;;;;;;;1.77;1.23;;;;;;;;;;4998271;28;20219;-55
2023/10/05 00:27:05;;;;;;;1.92;1.45;;;;;;;;;;5002528;28;20176;-55
2023/10/05 00:29:41;;;;;;;1.60;1.00;;;;;;;;;;4996542;28;20327;-55
2023/10/05 00:32:19;;;;;;;1.52;1.13;;;;;;;;;;4995224;28;20187;-55
2023/10/05 00:34:51;;;;;;;2.55;1.50;;;;;;;;;;5007241;28;20643;-55
2023/10/05 00:37:17;;;;;;;3.35;1.58;;;;;;;;;;5013515;28;20196;-55
2023/10/05 00:39:49;;;;;;;2.25;1.50;;;;;;;;;;5000451;28;20202;-55
2023/10/05 00:42:15;;;;;;;2.05;1.20;;;;;;;;;;4998417;28;20192;-55
2023/10/05 00:44:42;;;;;;;1.85;1.20;;;;;;;;;;5000935;28;20213;-55
2023/10/05 00:47:12;;;;;;;1.48;1.15;;;;;;;;;;5000339;28;20177;-55
2023/10/05 00:52:17;;;;;;;2.72;1.60;;;;;;;;;;5002462;28;20188;-55
2023/10/05 00:54:48;;;;;;;1.42;1.23;;;;;;;;;;5004692;28;20182;-55
2023/10/05 00:57:14;;;;;;;3.20;1.60;;;;;;;;;;5000802;28;20806;-55
2023/10/05 00:59:41;;;;;;;2.30;1.25;;;;;;;;;;4996348;28;20184;-55
2023/10/05 01:02:20;;;;;;;3.38;1.50;;;;;;;;;;4999839;28;20205;-55
2023/10/05 01:04:56;;;;;;;2.90;1.45;;;;;;;;;;4993927;28;20232;-55
2023/10/05 01:12:36;;;;;;;1.77;1.20;;;;;;;;;;5000022;28;20607;-55
2023/10/05 01:15:05;;;;;;;2.08;1.50;;;;;;;;;;4996258;28;20181;-55
2023/10/05 01:17:31;;;;;;;1.65;1.20;;;;;;;;;;5004594;28;20204;-55
2023/10/05 01:20:07;;;;;;;2.85;1.58;;;;;;;;;;5004800;28;20250;-55
2023/10/05 01:22:34;;;;;;;2.05;1.52;;;;;;;;;;4995570;28;20177;-56
2023/10/05 01:25:02;;;;;;;1.83;1.30;;;;;;;;;;4992001;28;20192;-55
2023/10/05 01:27:29;;;;;;;1.90;1.35;;;;;;;;;;5002559;28;20185;-55
2023/10/05 01:29:58;;;;;;;2.00;1.40;;;;;;;;;;5007064;28;20556;-55
2023/10/05 01:32:25;;;;;;;1.63;1.10;;;;;;;;;;4999777;28;20243;-55
2023/10/05 01:34:50;;;;;;;3.03;1.50;;;;;;;;;;5013358;28;20268;-55
2023/10/05 01:37:21;;;;;;;1.88;1.20;;;;;;;;;;5002965;28;20256;-55
2023/10/05 01:39:48;;;;;;;2.20;1.40;;;;;;;;;;5000836;28;20464;-55
2023/10/05 01:42:14;;;;;;;2.58;1.52;;;;;;;;;;5000131;28;20212;-55
2023/10/05 01:44:41;;;;;;;2.53;1.15;;;;;;;;;;5003010;28;20215;-55
2023/10/05 01:47:07;;;;;;;2.45;1.40;;;;;;;;;;5002415;28;20177;-55
2023/10/05 01:49:33;;;;;;;2.13;1.50;;;;;;;;;;5001691;28;20177;-55
2023/10/05 01:51:59;;;;;;;1.40;1.30;;;;;;;;;;5008895;28;20242;-55
2023/10/05 01:54:26;;;;;;;1.40;1.25;;;;;;;;;;4996031;28;20675;-55
2023/10/05 01:56:54;;;;;;;1.67;1.30;;;;;;;;;;5005634;28;20188;-55
2023/10/05 01:59:21;;;;;;;1.65;1.25;;;;;;;;;;4994933;28;20203;-55
2023/10/05 02:01:47;;;;;;;1.98;1.02;;;;;;;;;;5005753;28;20233;-55
2023/10/05 02:04:16;;;;;;;1.55;1.17;;;;;;;;;;5004704;28;20220;-55
2023/10/05 02:06:42;;;;;;;2.22;1.20;;;;;;;;;;4996116;28;20235;-55
2023/10/05 02:09:10;;;;;;;2.22;1.30;;;;;;;;;;4994014;28;20185;-55
2023/10/05 02:11:36;;;;;;;2.45;1.40;;;;;;;;;;5005566;28;20208;-55
2023/10/05 02:14:04;;;;;;;1.48;1.20;;;;;;;;;;5009650;28;20929;-55
2023/10/05 02:16:30;;;;;;;1.75;1.20;;;;;;;;;;5004778;28;20835;-55
2023/10/05 02:18:56;;;;;;;1.73;1.35;;;;;;;;;;5012894;28;20180;-55
2023/10/05 02:21:30;;;;;;;1.70;1.10;;;;;;;;;;5009241;28;20579;-55
2023/10/05 02:24:15;;;;;;;1.50;1.17;;;;;;;;;;4998920;28;20234;-55
2023/10/05 02:27:09;;;;;;;1.95;1.20;;;;;;;;;;5003897;28;20216;-55
2023/10/05 02:29:35;;;;;;;1.75;1.30;;;;;;;;;;5009702;28;20198;-55
2023/10/05 02:32:10;;;;;;;1.58;1.30;;;;;;;;;;4995224;28;20189;-55
2023/10/05 02:34:48;;;;;;;2.33;1.50;;;;;;;;;;4996742;28;20187;-55
2023/10/05 02:37:19;;;;;;;2.00;1.23;;;;;;;;;;5006623;28;20182;-55
2023/10/05 02:39:45;;;;;;;1.98;1.23;;;;;;;;;;5016332;28;20224;-55
2023/10/05 02:42:21;;;;;;;2.10;1.40;;;;;;;;;;4990860;28;20185;-55
2023/10/05 02:44:49;;;;;;;2.63;1.20;;;;;;;;;;4997245;28;20236;-55
2023/10/05 02:47:22;;;;;;;2.95;1.55;;;;;;;;;;4991454;28;20288;-55
2023/10/05 02:49:48;;;;;;;1.33;1.13;;;;;;;;;;5012374;28;20540;-55
2023/10/05 02:52:16;;;;;;;1.27;1.00;;;;;;;;;;5010644;28;20560;-55
2023/10/05 02:54:42;;;;;;;3.03;1.50;;;;;;;;;;5006352;28;20192;-55
2023/10/05 02:57:10;;;;;;;2.42;1.45;;;;;;;;;;5004498;28;20263;-55
2023/10/05 02:59:36;;;;;;;2.17;1.65;;;;;;;;;;4995744;28;20177;-55
2023/10/05 03:02:07;;;;;;;2.05;1.30;;;;;;;;;;5000386;28;20527;-55
2023/10/05 03:07:18;;;;;;;1.25;1.10;;;;;;;;;;5009247;28;20243;-55
2023/10/05 03:09:46;;;;;;;2.97;1.00;;;;;;;;;;5003157;28;20629;-55
2023/10/05 03:12:12;;;;;;;2.00;1.30;;;;;;;;;;5002193;28;20173;-55
2023/10/05 03:14:38;;;;;;;1.27;1.17;;;;;;;;;;4998817;28;20178;-55
2023/10/05 03:17:07;;;;;;;2.22;1.05;;;;;;;;;;5002812;28;20181;-55
2023/10/05 03:19:36;;;;;;;1.48;1.20;;;;;;;;;;5012755;28;20191;-55
2023/10/05 03:22:05;;;;;;;2.15;1.13;;;;;;;;;;5011094;28;20542;-55
2023/10/05 03:24:33;;;;;;;2.63;1.38;;;;;;;;;;5003699;28;20292;-55
2023/10/05 03:27:03;;;;;;;2.40;1.40;;;;;;;;;;5010363;28;20180;-56
2023/10/05 03:29:29;;;;;;;1.98;1.20;;;;;;;;;;4999369;28;20238;-55
2023/10/05 03:32:04;;;;;;;2.42;1.58;;;;;;;;;;5005613;28;20173;-55
2023/10/05 03:34:31;;;;;;;1.50;1.15;;;;;;;;;;5006210;28;20182;-55
2023/10/05 03:37:03;;;;;;;1.65;1.30;;;;;;;;;;5003800;28;20172;-55
2023/10/05 03:39:33;;;;;;;2.88;1.20;;;;;;;;;;5002388;28;20184;-55
2023/10/05 03:41:59;;;;;;;2.72;1.45;;;;;;;;;;5004431;28;20219;-55
2023/10/05 03:44:25;;;;;;;2.25;1.60;;;;;;;;;;5008393;28;20507;-55
2023/10/05 03:46:52;;;;;;;3.20;1.48;;;;;;;;;;4999429;28;20185;-55
2023/10/05 03:49:21;;;;;;;3.45;1.60;;;;;;;;;;4992445;28;20173;-55
2023/10/05 03:51:50;;;;;;;8.70;1.90;;;;;;;;;;4991350;28;20188;-55
2023/10/05 03:54:18;;;;;;;6.28;2.28;;;;;;;;;;5007885;28;20168;-55
2023/10/05 03:56:45;;;;;;;7.95;2.00;;;;;;;;;;5003097;28;20186;-55
2023/10/05 03:59:11;;;;;;;11.70;2.80;;;;;;;;;;4992571;28;20191;-55
2023/10/05 04:01:37;;;;;;;5.30;2.47;;;;;;;;;;4996963;28;20263;-55
2023/10/05 04:04:08;;;;;;;11.77;2.92;;;;;;;;;;5009776;28;20208;-55
2023/10/05 04:06:34;;;;;;;8.73;2.72;;;;;;;;;;4998915;28;20181;-55
2023/10/05 04:09:00;;;;;;;11.73;3.38;;;;;;;;;;4992042;28;20206;-55
2023/10/05 04:11:27;;;;;;;7.63;2.88;;;;;;;;;;5005522;28;20204;-55
2023/10/05 04:13:54;;;;;;;12.38;2.63;;;;;;;;;;5005019;28;20231;-55
2023/10/05 04:16:28;;;;;;;13.10;3.08;;;;;;;;;;4988517;28;20522;-55
2023/10/05 04:18:54;;;;;;;10.30;3.33;;;;;;;;;;5005076;28;20278;-55
2023/10/05 04:21:22;;;;;;;13.25;3.20;;;;;;;;;;4996905;28;20192;-55
2023/10/05 04:23:58;;;;;;;12.30;3.42;;;;;;;;;;5005430;28;20197;-55
2023/10/05 04:26:32;;;;;;;13.32;3.08;;;;;;;;;;4994144;28;20216;-55
2023/10/05 04:28:58;;;;;;;8.00;2.80;;;;;;;;;;5000751;28;20182;-55
2023/10/05 04:31:27;;;;;;;9.68;3.03;;;;;;;;;;4999740;28;20515;-55
2023/10/05 04:33:57;;;;;;;13.95;3.78;;;;;;;;;;4999025;28;20223;-55
2023/10/05 04:36:25;;;;;;;15.20;3.60;;;;;;;;;;5007360;28;20176;-56
2023/10/05 04:38:53;;;;;;;8.05;3.15;;;;;;;;;;5000776;28;20561;-55
2023/10/05 04:41:20;;;;;;;10.68;2.95;;;;;;;;;;5008230;28;20465;-55
2023/10/05 04:43:48;;;;;;;11.05;3.53;;;;;;;;;;4997796;28;20234;-55
2023/10/05 04:46:17;;;;;;;10.90;2.80;;;;;;;;;;4996572;28;20247;-55
2023/10/05 04:48:55;;;;;;;10.02;2.47;;;;;;;;;;5007265;28;20727;-56
2023/10/05 04:51:21;;;;;;;7.13;2.03;;;;;;;;;;4991825;28;20177;-56
2023/10/05 04:53:49;;;;;;;10.25;3.08;;;;;;;;;;4992516;28;20182;-56
2023/10/05 04:56:35;;;;;;;9.82;2.90;;;;;;;;;;4999467;28;20275;-56
2023/10/05 05:01:56;;;;;;;10.20;2.60;;;;;;;;;;4982625;28;20216;-56
2023/10/05 05:07:09;;;;;;;6.38;2.40;;;;;;;;;;4999621;28;20588;-54
2023/10/05 05:09:39;;;;;;;10.13;2.80;;;;;;;;;;5000942;28;20572;-54
2023/10/05 05:12:08;;;;;;;9.05;2.83;;;;;;;;;;5003052;28;20222;-54
2023/10/05 05:14:35;;;;;;;6.68;1.98;;;;;;;;;;4993649;28;20251;-54
2023/10/05 05:17:02;;;;;;;8.18;2.63;;;;;;;;;;5000251;28;20201;-54
2023/10/05 05:19:30;;;;;;;6.93;2.00;;;;;;;;;;5002767;28;20192;-54
2023/10/05 05:21:57;;;;;;;5.20;2.40;;;;;;;;;;5012352;28;20446;-55
2023/10/05 05:24:23;;;;;;;5.93;2.33;;;;;;;;;;4999450;28;20213;-55
2023/10/05 05:26:49;;;;;;;6.40;2.08;;;;;;;;;;5001895;28;20239;-55
2023/10/05 05:29:18;;;;;;;5.47;2.03;;;;;;;;;;5006444;28;20560;-55
2023/10/05 05:31:44;;;;;;;4.50;2.20;;;;;;;;;;5007962;28;20180;-55
2023/10/05 05:34:10;;;;;;;5.53;2.10;;;;;;;;;;5000631;28;20185;-55
2023/10/05 05:36:36;;;;;;;9.80;2.70;;;;;;;;;;5007293;28;20554;-53
2023/10/05 05:39:05;;;;;;;6.90;2.25;;;;;;;;;;5018614;28;20180;-53
2023/10/05 05:41:36;;;;;;;7.35;2.80;;;;;;;;;;5006152;28;20181;-53
2023/10/05 05:44:03;;;;;;;9.40;3.05;;;;;;;;;;5012787;28;20588;-53
2023/10/05 05:46:28;;;;;;;7.57;3.28;;;;;;;;;;4993989;28;20549;-53
2023/10/05 05:48:54;;;;;;;7.63;3.40;;;;;;;;;;5002576;28;20191;-53
2023/10/05 05:51:23;;;;;;;6.68;3.28;;;;;;;;;;4991160;28;20176;-52
2023/10/05 05:53:50;;;;;;;7.47;3.30;;;;;;;;;;4990682;28;20192;-53
2023/10/05 05:56:19;;;;;;;8.65;3.42;;;;;;;;;;5004608;28;20205;-53
2023/10/05 05:58:50;;;;;;;12.40;3.03;;;;;;;;;;5008221;28;20185;-52
2023/10/05 06:01:20;;;;;;;8.82;3.10;;;;;;;;;;4998479;28;20737;-53
2023/10/05 06:03:49;;;;;;;9.38;3.65;;;;;;;;;;4987797;28;20193;-53
2023/10/05 06:06:16;;;;;;;7.68;3.08;;;;;;;;;;4998799;28;20186;-53
2023/10/05 06:08:42;;;;;;;7.13;3.67;;;;;;;;;;5011643;28;20192;-53
2023/10/05 06:11:08;;;;;;;7.65;3.60;;;;;;;;;;4994685;28;20185;-53
2023/10/05 06:13:36;;;;;;;6.07;3.42;;;;;;;;;;5006469;28;20216;-53
2023/10/05 06:16:03;;;;;;;7.38;3.13;;;;;;;;;;4991526;28;20178;-53
2023/10/05 06:18:31;;;;;;;10.57;3.53;;;;;;;;;;5006022;28;20180;-53
2023/10/05 06:20:57;;;;;;;7.68;3.17;;;;;;;;;;5001556;28;20177;-53
2023/10/05 06:23:23;;;;;;;8.82;3.28;;;;;;;;;;5007816;28;20211;-53
2023/10/05 06:25:50;;;;;;;8.55;2.80;;;;;;;;;;4998757;28;20189;-52
2023/10/05 06:28:17;;;;;;;7.00;2.78;;;;;;;;;;4995239;28;20188;-53
2023/10/05 06:30:43;;;;;;;6.57;2.45;;;;;;;;;;5003047;28;20177;-52
2023/10/05 06:33:09;;;;;;;8.00;3.20;;;;;;;;;;5000639;28;20459;-52
2023/10/05 06:35:35;;;;;;;7.93;2.90;;;;;;;;;;4996590;28;20558;-52
2023/10/05 06:38:01;;;;;;;9.07;3.20;;;;;;;;;;4994755;28;20181;-52
2023/10/05 06:40:29;;;;;;;5.47;2.88;;;;;;;;;;5013802;28;20268;-52
2023/10/05 06:42:57;;;;;;;8.18;3.67;;;;;;;;;;4996513;28;20182;-52
2023/10/05 06:45:23;;;;;;;7.80;3.15;;;;;;;;;;5003576;28;20215;-52
2023/10/05 06:47:50;;;;;;;7.30;3.05;;;;;;;;;;4993669;28;20177;-52
2023/10/05 06:50:17;;;;;;;6.25;3.08;;;;;;;;;;4993945;28;20904;-52
2023/10/05 06:52:43;;;;;;;7.30;3.63;;;;;;;;;;4997046;28;20185;-52
2023/10/05 06:55:13;;;;;;;8.07;3.08;;;;;;;;;;5006271;28;20195;-49
2023/10/05 06:57:40;;;;;;;7.80;2.80;;;;;;;;;;5003330;28;20292;-63
2023/10/05 07:00:16;;;;;;;6.65;2.88;;;;;;;;;;5003068;28;20454;-61
2023/10/05 07:02:46;;;;;;;6.22;2.40;;;;;;;;;;5002807;28;20200;-50
2023/10/05 07:05:12;;;;;;;6.82;2.47;;;;;;;;;;5011128;28;20197;-61
2023/10/05 07:07:40;;;;;;;6.25;2.70;;;;;;;;;;4992347;28;20208;-50
2023/10/05 07:10:07;;;;;;;6.05;2.72;;;;;;;;;;4999102;28;20187;-50
2023/10/05 07:12:35;;;;;;;6.13;2.60;;;;;;;;;;4990421;28;20471;-49
2023/10/05 07:15:01;;;;;;;8.80;2.58;;;;;;;;;;5005005;28;20544;-52
2023/10/05 07:17:29;;;;;;;9.25;2.42;;;;;;;;;;4998534;28;20575;-53
2023/10/05 07:19:55;;;;;;;9.30;2.60;;;;;;;;;;4998132;28;20196;-50
2023/10/05 07:22:22;;;;;;;7.03;2.33;;;;;;;;;;5003003;28;20185;-50
2023/10/05 07:24:47;;;;;;;6.80;2.58;;;;;;;;;;5005147;28;20231;-52
2023/10/05 07:27:13;;;;;;;5.82;2.60;;;;;;;;;;5009935;28;20188;-52
2023/10/05 07:29:44;;;;;;;8.85;2.50;;;;;;;;;;4998481;28;20265;-52
2023/10/05 07:32:11;;;;;;;5.72;2.97;;;;;;;;;;5001291;28;20185;-52
2023/10/05 07:34:37;;;;;;;6.63;2.55;;;;;;;;;;4993927;28;20176;-52
2023/10/05 07:37:05;;;;;;;5.85;2.20;;;;;;;;;;5008375;28;20512;-53
2023/10/05 07:39:31;;;;;;;4.82;2.53;;;;;;;;;;4997146;28;20573;-52
2023/10/05 07:41:59;;;;;;;6.78;2.85;;;;;;;;;;4986061;28;20201;-52
2023/10/05 07:44:27;;;;;;;7.20;2.40;;;;;;;;;;4998768;28;20358;-52
2023/10/05 07:46:53;;;;;;;4.40;2.70;;;;;;;;;;4990273;28;20177;-52
2023/10/05 07:49:20;;;;;;;4.78;2.30;;;;;;;;;;4991079;28;20197;-52
2023/10/05 07:51:46;;;;;;;6.82;2.75;;;;;;;;;;4988356;28;20232;-52
2023/10/05 07:54:12;;;;;;;7.80;3.03;;;;;;;;;;4993269;28;20562;-52
2023/10/05 07:56:38;;;;;;;6.13;2.25;;;;;;;;;;5004891;28;20228;-52
2023/10/05 07:59:04;;;;;;;4.97;2.92;;;;;;;;;;4992748;28;20245;-52
2023/10/05 08:01:30;;;;;;;7.72;2.90;;;;;;;;;;5006683;28;20185;-52
2023/10/05 08:03:56;;;;;;;8.00;2.92;;;;;;;;;;5004639;28;20259;-52
2023/10/05 08:06:22;;;;;;;6.35;2.45;;;;;;;;;;4992989;28;20189;-52
2023/10/05 08:08:49;;;;;;;8.45;2.88;;;;;;;;;;4996709;28;20256;-52
2023/10/05 08:11:15;;;;;;;8.15;2.63;;;;;;;;;;5003316;28;20324;-53
2023/10/05 08:13:42;;;;;;;10.20;3.63;;;;;;;;;;5006647;28;20183;-52
2023/10/05 08:16:08;;;;;;;7.93;2.60;;;;;;;;;;5008683;28;20219;-52
2023/10/05 08:18:36;;;;;;;8.45;2.38;;;;;;;;;;4998276;28;20534;-49
2023/10/05 08:21:02;;;;;;;7.05;3.13;;;;;;;;;;5002112;28;20177;-50
2023/10/05 08:23:28;;;;;;;7.40;2.70;;;;;;;;;;4993164;28;20221;-50
2023/10/05 08:25:57;;;;;;;6.15;2.30;;;;;;;;;;5004381;28;20513;-49
2023/10/05 08:28:24;;;;;;;6.43;2.80;;;;;;;;;;4994621;28;20182;-49
